Time;durP1;ratioP1;P1;durP2;ratioP2;P2;SDS_P1;SDS_P2;PMS_P1;PMS_P2;Temp;Humidity;BMP_temperature;BMP_pressure;BME280_temperature;BME280_humidity;BME280_pressure;Samples;Min_cycle;Max_cycle;Signal;HPM_P1;HPM_P2
2021/12/16 00:01:53;;;;;;;0.60;0.60;;;9.40;99.90;;;;;;5013018;28;21055;-69
2021/12/16 00:05:13;;;;;;;0.50;0.50;;;9.30;99.90;;;;;;5075234;28;20463;-70
2021/12/16 00:08:02;;;;;;;2.53;2.33;;;9.50;99.90;;;;;;5074064;28;20427;-71
2021/12/16 00:10:56;;;;;;;6.60;3.87;;;9.40;99.90;;;;;;5074268;28;20518;-71
2021/12/16 00:29:41;;;;;;;3.70;3.40;;;9.30;99.90;;;;;;5073941;28;20494;-71
2021/12/16 00:32:44;;;;;;;5.47;2.97;;;9.30;99.90;;;;;;5073465;28;20424;-70
2021/12/16 00:35:32;;;;;;;18.50;4.93;;;9.30;99.90;;;;;;5072779;28;20419;-71
2021/12/16 00:38:19;;;;;;;5.77;4.50;;;9.30;99.90;;;;;;5073409;28;20415;-71
2021/12/16 00:41:06;;;;;;;6.50;3.63;;;9.30;99.90;;;;;;5093376;28;20418;-71
2021/12/16 00:43:59;;;;;;;2.00;1.90;;;9.30;99.90;;;;;;5093446;28;20472;-70
2021/12/16 00:46:59;;;;;;;1.53;1.43;;;9.30;99.90;;;;;;5094360;28;20450;-70
2021/12/16 00:49:49;;;;;;;0.40;0.40;;;9.30;99.90;;;;;;5092678;28;20438;-70
2021/12/16 00:55:47;;;;;;;7.43;3.20;;;9.30;99.90;;;;;;5092134;28;20453;-70
2021/12/16 00:58:41;;;;;;;0.60;0.60;;;9.30;99.90;;;;;;5092286;28;20467;-71
2021/12/16 01:01:40;;;;;;;1.53;1.43;;;9.30;99.90;;;;;;5093526;28;20418;-70
2021/12/16 01:08:14;;;;;;;2.00;1.90;;;9.30;99.90;;;;;;5055616;28;20511;-69
2021/12/16 01:36:12;;;;;;;3.90;1.83;;;9.30;99.90;;;;;;5092333;28;20938;-70
2021/12/16 01:39:39;;;;;;;2.50;1.17;;;9.30;99.90;;;;;;5086598;28;20801;-70
2021/12/16 01:42:32;;;;;;;0.97;0.97;;;9.20;99.90;;;;;;5072205;28;20415;-70
2021/12/16 01:45:39;;;;;;;2.83;2.43;;;9.20;99.90;;;;;;5071201;28;20459;-69
2021/12/16 01:49:09;;;;;;;2.23;1.90;;;9.40;99.90;;;;;;5071762;28;20458;-70
2021/12/16 01:52:10;;;;;;;1.27;1.27;;;9.30;99.90;;;;;;5071886;28;20943;-70
2021/12/16 01:55:07;;;;;;;1.07;1.03;;;9.30;99.90;;;;;;5072759;28;20949;-70
2021/12/16 01:57:59;;;;;;;0.60;0.60;;;9.30;99.90;;;;;;5071968;28;20419;-70
2021/12/16 02:00:56;;;;;;;5.13;2.93;;;9.30;99.90;;;;;;5073092;28;20551;-70
2021/12/16 02:03:53;;;;;;;1.47;1.37;;;9.30;99.90;;;;;;5072801;28;20427;-71
2021/12/16 02:06:48;;;;;;;0.40;0.40;;;9.20;99.90;;;;;;5071536;28;20470;-70
2021/12/16 02:09:40;;;;;;;6.17;2.97;;;9.40;99.90;;;;;;5072630;28;20506;-69
2021/12/16 02:12:48;;;;;;;4.33;2.97;;;9.20;99.90;;;;;;5072584;28;20537;-70
2021/12/16 02:28:26;;;;;;;0.77;0.60;;;9.10;99.90;;;;;;5083111;28;20414;-70
2021/12/16 02:31:26;;;;;;;1.50;1.40;;;9.00;99.90;;;;;;5088982;28;20422;-70
2021/12/16 02:34:27;;;;;;;1.73;1.63;;;9.00;99.90;;;;;;5091296;28;20423;-71
2021/12/16 02:37:19;;;;;;;0.50;0.50;;;9.00;99.90;;;;;;5093063;28;20457;-71
2021/12/16 02:40:09;;;;;;;0.50;0.50;;;9.10;99.90;;;;;;5080585;28;20428;-70
2021/12/16 02:42:59;;;;;;;0.40;0.40;;;9.10;99.90;;;;;;5076857;28;20422;-70
2021/12/16 02:48:52;;;;;;;0.50;0.50;;;9.10;99.90;;;;;;5075709;28;20411;-70
2021/12/16 02:51:39;;;;;;;0.40;0.40;;;9.10;99.90;;;;;;5075269;28;20809;-70
2021/12/16 02:54:28;;;;;;;1.37;1.13;;;9.10;99.90;;;;;;5075637;28;20497;-70
2021/12/16 02:57:16;;;;;;;6.20;1.23;;;9.10;99.90;;;;;;5075671;28;20497;-70
2021/12/16 03:00:04;;;;;;;1.17;1.07;;;9.00;99.90;;;;;;5075118;28;20434;-69
2021/12/16 03:02:53;;;;;;;0.40;0.40;;;9.00;99.90;;;;;;5075573;28;20469;-71
2021/12/16 03:05:40;;;;;;;4.10;1.93;;;9.00;99.90;;;;;;5075438;28;20470;-70
2021/12/16 03:08:28;;;;;;;1.57;1.50;;;9.00;99.90;;;;;;5075417;28;20423;-70
2021/12/16 03:11:24;;;;;;;0.40;0.40;;;9.10;99.90;;;;;;5075519;28;20419;-70
2021/12/16 03:17:24;;;;;;;0.50;0.50;;;9.10;99.90;;;;;;5075654;28;20542;-69
2021/12/16 03:20:18;;;;;;;1.60;1.20;;;9.10;99.90;;;;;;5075501;28;20506;-69
2021/12/16 03:23:22;;;;;;;0.90;0.90;;;9.10;99.90;;;;;;5074981;28;20781;-69
2021/12/16 03:29:38;;;;;;;3.70;2.40;;;9.00;99.90;;;;;;5075121;28;20414;-70
2021/12/16 03:32:45;;;;;;;0.63;0.63;;;9.00;99.90;;;;;;5075354;28;20864;-69
2021/12/16 03:35:39;;;;;;;0.83;0.83;;;9.10;99.90;;;;;;5074858;28;20423;-70
2021/12/16 03:38:26;;;;;;;1.83;0.80;;;9.00;99.90;;;;;;5075060;28;20419;-69
2021/12/16 03:41:13;;;;;;;1.03;0.77;;;9.10;99.90;;;;;;5073414;28;20423;-70
2021/12/16 03:44:03;;;;;;;0.97;0.97;;;9.10;99.90;;;;;;5073004;28;20423;-70
2021/12/16 03:46:52;;;;;;;0.77;0.77;;;9.10;99.90;;;;;;5072964;28;20538;-70
2021/12/16 03:49:39;;;;;;;2.67;1.70;;;9.00;99.90;;;;;;5072745;28;20468;-70
2021/12/16 03:52:26;;;;;;;0.90;0.90;;;9.00;99.90;;;;;;5073147;28;20473;-70
2021/12/16 03:55:14;;;;;;;0.90;0.50;;;9.00;99.90;;;;;;5072994;28;20441;-70
2021/12/16 03:58:01;;;;;;;4.33;2.00;;;9.00;99.90;;;;;;5072555;28;20423;-70
2021/12/16 04:00:54;;;;;;;0.40;0.40;;;9.00;99.90;;;;;;5072560;28;20783;-70
2021/12/16 04:03:43;;;;;;;0.40;0.40;;;9.00;99.90;;;;;;5073361;28;20427;-70
2021/12/16 04:06:33;;;;;;;1.97;1.63;;;9.00;99.90;;;;;;5072840;28;20494;-69
2021/12/16 04:09:20;;;;;;;0.40;0.40;;;9.00;99.90;;;;;;5072178;28;20451;-69
2021/12/16 04:12:11;;;;;;;1.67;1.57;;;9.00;99.90;;;;;;5072505;28;20469;-70
2021/12/16 04:15:01;;;;;;;1.20;1.10;;;9.00;99.90;;;;;;5072623;28;20427;-70
2021/12/16 04:17:48;;;;;;;1.53;1.37;;;9.10;99.90;;;;;;5072333;28;20798;-69
2021/12/16 04:20:37;;;;;;;5.80;3.07;;;9.00;99.90;;;;;;5072712;28;20422;-69
2021/12/16 04:23:24;;;;;;;3.33;1.13;;;9.00;99.90;;;;;;5072316;28;20434;-70
2021/12/16 04:26:11;;;;;;;1.40;1.30;;;9.00;99.90;;;;;;5085561;28;20850;-70
2021/12/16 04:28:58;;;;;;;1.90;1.63;;;9.00;99.90;;;;;;5092842;28;20945;-70
2021/12/16 04:31:46;;;;;;;0.90;0.70;;;9.00;99.90;;;;;;5093099;28;20414;-69
2021/12/16 04:34:33;;;;;;;1.33;1.23;;;9.00;99.90;;;;;;5093366;28;20843;-70
2021/12/16 04:37:22;;;;;;;0.40;0.40;;;8.90;99.90;;;;;;5092799;28;20966;-70
2021/12/16 04:40:11;;;;;;;2.50;0.70;;;8.80;99.90;;;;;;5077457;28;21005;-70
2021/12/16 04:43:01;;;;;;;0.70;0.70;;;8.70;99.90;;;;;;5073546;28;20431;-69
2021/12/16 04:45:49;;;;;;;0.73;0.73;;;8.60;99.90;;;;;;5071983;28;20601;-70
2021/12/16 04:48:37;;;;;;;0.87;0.87;;;8.50;99.90;;;;;;5072933;28;20476;-70
2021/12/16 04:51:27;;;;;;;4.53;2.50;;;8.50;99.90;;;;;;5072377;28;20476;-70
2021/12/16 04:54:18;;;;;;;2.10;0.93;;;8.50;99.90;;;;;;5073232;28;20423;-70
2021/12/16 04:57:06;;;;;;;0.40;0.40;;;8.50;99.90;;;;;;5073665;28;20451;-70
2021/12/16 04:59:53;;;;;;;0.87;0.87;;;8.60;99.90;;;;;;5072072;28;20420;-70
2021/12/16 05:02:40;;;;;;;0.80;0.80;;;8.70;99.90;;;;;;5072121;28;21002;-70
2021/12/16 05:05:27;;;;;;;2.50;1.80;;;8.70;99.90;;;;;;5072424;28;20427;-70
2021/12/16 05:08:14;;;;;;;0.40;0.40;;;8.80;99.90;;;;;;5071886;28;20840;-69
2021/12/16 05:11:04;;;;;;;0.83;0.77;;;8.80;99.90;;;;;;5071826;28;20939;-69
2021/12/16 05:13:51;;;;;;;3.30;2.13;;;8.80;99.90;;;;;;5073764;28;20989;-70
2021/12/16 05:16:38;;;;;;;0.40;0.40;;;8.70;99.90;;;;;;5072646;28;20509;-70
2021/12/16 05:19:25;;;;;;;1.50;1.17;;;8.70;99.90;;;;;;5072215;28;20802;-70
2021/12/16 05:25:22;;;;;;;0.83;0.83;;;8.60;99.90;;;;;;5072701;28;20924;-70
2021/12/16 05:28:10;;;;;;;0.40;0.40;;;8.40;99.90;;;;;;5072249;28;20415;-70
2021/12/16 05:30:58;;;;;;;4.40;1.57;;;8.30;99.90;;;;;;5071294;28;20943;-70
2021/12/16 05:33:45;;;;;;;2.00;0.93;;;8.20;99.90;;;;;;5071548;28;20431;-70
2021/12/16 05:36:32;;;;;;;5.60;3.27;;;8.20;99.90;;;;;;5072195;28;20447;-70
2021/12/16 05:39:20;;;;;;;0.50;0.50;;;8.10;99.90;;;;;;5080307;28;20798;-69
2021/12/16 05:42:08;;;;;;;1.53;0.97;;;8.10;99.90;;;;;;5092482;28;20899;-70
2021/12/16 05:44:56;;;;;;;0.40;0.40;;;8.10;99.90;;;;;;5091019;28;20422;-70
2021/12/16 05:47:43;;;;;;;7.57;4.63;;;8.00;99.90;;;;;;5092299;28;20478;-70
2021/12/16 05:50:33;;;;;;;1.13;0.77;;;8.00;99.90;;;;;;5091781;28;20419;-70
2021/12/16 05:53:20;;;;;;;0.60;0.60;;;7.90;99.90;;;;;;5092371;28;20422;-69
2021/12/16 05:56:07;;;;;;;2.87;2.57;;;7.90;99.90;;;;;;5092295;28;20471;-70
2021/12/16 05:58:55;;;;;;;0.40;0.40;;;7.90;99.90;;;;;;5091592;28;20471;-70
2021/12/16 06:01:44;;;;;;;7.60;3.23;;;7.90;99.90;;;;;;5092685;28;20890;-71
2021/12/16 06:04:33;;;;;;;0.80;0.80;;;7.90;99.90;;;;;;5092284;28;20848;-70
2021/12/16 06:07:21;;;;;;;4.57;1.90;;;7.90;99.90;;;;;;5091808;28;20470;-69
2021/12/16 06:10:13;;;;;;;3.27;1.43;;;7.80;99.90;;;;;;5091880;28;20527;-70
2021/12/16 06:13:01;;;;;;;6.53;5.80;;;7.80;99.90;;;;;;5095814;28;20986;-69
2021/12/16 06:22:18;;;;;;;1.47;1.00;;;7.90;99.90;;;;;;5095610;28;20462;-70
2021/12/16 06:28:22;;;;;;;0.60;0.60;;;7.90;99.90;;;;;;5096130;28;20461;-70
2021/12/16 06:31:09;;;;;;;3.77;2.77;;;7.90;99.90;;;;;;5097279;28;20792;-70
2021/12/16 06:33:57;;;;;;;1.60;1.20;;;8.00;99.90;;;;;;5099012;28;20426;-70
2021/12/16 06:36:45;;;;;;;2.70;2.50;;;8.00;99.90;;;;;;5108399;28;20484;-71
2021/12/16 06:39:32;;;;;;;2.97;1.20;;;7.90;99.90;;;;;;5097213;28;20430;-71
2021/12/16 06:42:20;;;;;;;0.60;0.60;;;8.00;99.90;;;;;;5078964;28;20480;-71
2021/12/16 06:45:12;;;;;;;0.60;0.60;;;8.00;99.90;;;;;;5091533;28;20957;-71
2021/12/16 06:48:03;;;;;;;0.93;0.93;;;8.00;99.90;;;;;;5075232;28;20853;-71
2021/12/16 06:50:54;;;;;;;2.67;1.50;;;8.00;99.90;;;;;;5074316;28;20513;-70
2021/12/16 06:53:50;;;;;;;0.73;0.60;;;8.10;99.90;;;;;;5074622;28;20522;-71
2021/12/16 06:56:46;;;;;;;1.23;1.23;;;8.10;99.90;;;;;;5074517;28;20443;-70
2021/12/16 06:59:37;;;;;;;1.50;0.87;;;8.10;99.90;;;;;;5074155;28;20431;-70
2021/12/16 07:02:49;;;;;;;1.43;1.37;;;8.10;99.90;;;;;;5074466;28;20450;-71
2021/12/16 07:05:39;;;;;;;0.60;0.60;;;8.10;99.90;;;;;;5074442;28;20419;-70
2021/12/16 07:08:26;;;;;;;1.37;1.37;;;8.20;99.90;;;;;;5074304;28;20769;-70
2021/12/16 07:11:15;;;;;;;1.80;1.23;;;8.20;99.90;;;;;;5074402;28;20422;-70
2021/12/16 07:14:04;;;;;;;4.27;2.50;;;8.20;99.90;;;;;;5074090;28;20434;-70
2021/12/16 07:16:54;;;;;;;0.40;0.40;;;8.20;99.90;;;;;;5073938;28;20451;-71
2021/12/16 07:19:42;;;;;;;1.03;1.03;;;8.20;99.90;;;;;;5084335;28;20423;-70
2021/12/16 07:22:29;;;;;;;0.90;0.90;;;8.20;99.90;;;;;;5081309;28;20427;-69
2021/12/16 07:25:16;;;;;;;0.40;0.40;;;8.20;99.90;;;;;;5078231;28;20879;-70
2021/12/16 07:28:07;;;;;;;0.40;0.40;;;8.20;99.90;;;;;;5083031;28;20466;-71
2021/12/16 07:30:54;;;;;;;6.33;3.20;;;8.20;99.90;;;;;;5091314;28;20579;-70
2021/12/16 07:33:41;;;;;;;0.90;0.90;;;8.30;99.90;;;;;;5081414;28;20958;-70
2021/12/16 07:36:30;;;;;;;1.67;1.57;;;8.30;99.90;;;;;;5080146;28;20454;-70
2021/12/16 07:39:26;;;;;;;0.50;0.50;;;8.40;99.90;;;;;;5077343;28;20859;-70
2021/12/16 07:42:22;;;;;;;2.50;2.40;;;8.40;99.90;;;;;;5074902;28;20454;-70
2021/12/16 07:45:11;;;;;;;1.47;0.90;;;8.30;99.90;;;;;;5090421;28;20423;-70
2021/12/16 07:47:58;;;;;;;6.63;2.20;;;8.30;99.90;;;;;;5083395;28;20470;-71
2021/12/16 07:50:50;;;;;;;7.83;2.70;;;8.30;99.90;;;;;;5077285;28;20997;-69
2021/12/16 07:53:38;;;;;;;1.20;1.10;;;8.30;99.90;;;;;;5080604;28;20840;-69
2021/12/16 07:56:25;;;;;;;2.00;0.90;;;8.20;99.90;;;;;;5079949;28;20447;-70
2021/12/16 07:59:12;;;;;;;3.27;2.13;;;8.30;99.90;;;;;;5090530;28;20419;-70
2021/12/16 08:02:00;;;;;;;2.73;2.13;;;8.30;99.90;;;;;;5083753;28;20418;-70
2021/12/16 08:04:49;;;;;;;1.63;0.87;;;8.30;99.90;;;;;;5077172;28;20435;-70
2021/12/16 08:07:37;;;;;;;3.40;1.70;;;8.30;99.90;;;;;;5079700;28;20470;-71
2021/12/16 08:10:24;;;;;;;3.90;1.47;;;8.30;99.90;;;;;;5079728;28;20446;-69
2021/12/16 08:13:13;;;;;;;1.57;1.47;;;8.30;99.90;;;;;;5090499;28;20428;-70
2021/12/16 08:16:01;;;;;;;25.87;18.07;;;8.30;99.90;;;;;;5084310;28;20464;-69
2021/12/16 08:18:49;;;;;;;3.47;2.57;;;8.30;99.90;;;;;;5078379;28;20526;-70
2021/12/16 08:21:38;;;;;;;0.97;0.97;;;8.30;99.90;;;;;;5093867;28;20423;-69
2021/12/16 08:24:25;;;;;;;1.13;0.73;;;8.40;99.90;;;;;;5091033;28;20422;-70
2021/12/16 08:27:13;;;;;;;1.33;0.70;;;8.40;99.90;;;;;;5082063;28;20997;-70
2021/12/16 08:30:00;;;;;;;1.43;1.33;;;8.40;99.90;;;;;;5085287;28;20428;-70
2021/12/16 08:32:46;;;;;;;6.10;1.47;;;8.40;99.90;;;;;;5093265;28;20938;-70
2021/12/16 08:35:36;;;;;;;2.43;1.63;;;8.40;99.90;;;;;;5081723;28;20414;-70
2021/12/16 08:38:24;;;;;;;1.07;1.07;;;8.40;99.90;;;;;;5082578;28;20956;-70
2021/12/16 08:41:15;;;;;;;1.37;1.27;;;8.40;99.90;;;;;;5077237;28;20789;-70
2021/12/16 08:44:02;;;;;;;0.40;0.40;;;8.40;99.90;;;;;;5087999;28;20762;-70
2021/12/16 08:46:52;;;;;;;4.00;2.83;;;8.40;99.90;;;;;;5081064;28;20509;-70
2021/12/16 08:49:40;;;;;;;11.30;1.70;;;8.50;99.90;;;;;;5080545;28;20434;-70
2021/12/16 08:52:29;;;;;;;0.40;0.40;;;8.50;99.90;;;;;;5078684;28;20435;-70
2021/12/16 08:55:17;;;;;;;0.40;0.40;;;8.50;99.90;;;;;;5077021;28;20763;-70
2021/12/16 08:58:05;;;;;;;0.87;0.60;;;8.60;99.90;;;;;;5081924;28;20430;-70
2021/12/16 09:00:56;;;;;;;1.93;1.83;;;8.70;99.90;;;;;;5074545;28;20485;-71
2021/12/16 09:03:43;;;;;;;0.63;0.63;;;8.70;99.90;;;;;;5084646;28;20420;-71
2021/12/16 09:06:30;;;;;;;0.40;0.40;;;8.80;99.90;;;;;;5073116;28;20457;-71
2021/12/16 09:09:19;;;;;;;3.33;2.30;;;8.80;99.90;;;;;;5072478;28;20423;-71
2021/12/16 09:12:11;;;;;;;11.87;1.17;;;8.80;99.90;;;;;;5073084;28;20473;-70
2021/12/16 09:14:58;;;;;;;0.77;0.77;;;8.80;99.90;;;;;;5073102;28;20423;-70
2021/12/16 09:17:45;;;;;;;1.77;1.67;;;8.70;99.90;;;;;;5072230;28;20462;-73
2021/12/16 09:20:33;;;;;;;0.40;0.40;;;8.70;99.90;;;;;;5072594;28;20438;-71
2021/12/16 09:23:20;;;;;;;2.20;2.10;;;8.80;99.90;;;;;;5071602;28;20423;-70
2021/12/16 09:26:09;;;;;;;4.03;1.90;;;8.70;99.90;;;;;;5072737;28;20447;-70
2021/12/16 09:29:00;;;;;;;0.40;0.40;;;8.80;99.90;;;;;;5072104;28;20470;-71
2021/12/16 09:31:47;;;;;;;1.00;0.90;;;8.80;99.90;;;;;;5072925;28;20426;-71
2021/12/16 09:34:34;;;;;;;2.67;2.50;;;8.80;99.90;;;;;;5074176;28;20972;-70
2021/12/16 09:37:29;;;;;;;0.40;0.40;;;8.70;99.90;;;;;;5073113;28;20497;-70
2021/12/16 09:40:23;;;;;;;0.97;0.97;;;8.70;99.90;;;;;;5088641;28;20423;-70
2021/12/16 09:43:11;;;;;;;4.23;1.63;;;8.70;99.90;;;;;;5092889;28;20784;-69
2021/12/16 09:46:01;;;;;;;0.40;0.40;;;8.70;99.90;;;;;;5092183;28;20446;-71
2021/12/16 09:48:49;;;;;;;0.40;0.40;;;8.70;99.90;;;;;;5092340;28;20469;-70
2021/12/16 09:51:41;;;;;;;5.30;1.63;;;8.80;99.90;;;;;;5092793;28;20430;-70
2021/12/16 09:54:32;;;;;;;4.33;1.43;;;8.80;99.90;;;;;;5091941;28;20426;-69
2021/12/16 09:57:19;;;;;;;0.77;0.77;;;8.80;99.90;;;;;;5092305;28;20457;-70
2021/12/16 10:00:11;;;;;;;0.53;0.53;;;8.90;99.90;;;;;;5092368;28;20418;-70
2021/12/16 10:03:01;;;;;;;0.40;0.40;;;9.00;99.90;;;;;;5091979;28;20422;-71
2021/12/16 10:05:48;;;;;;;6.83;1.70;;;9.00;99.90;;;;;;5092107;28;21012;-70
2021/12/16 10:08:36;;;;;;;2.73;1.73;;;9.00;99.90;;;;;;5091873;28;20994;-70
2021/12/16 10:11:23;;;;;;;1.20;1.20;;;9.10;99.90;;;;;;5091828;28;20926;-69
2021/12/16 10:14:30;;;;;;;1.37;1.30;;;9.10;99.90;;;;;;5092199;28;20813;-70
2021/12/16 10:17:24;;;;;;;4.10;1.10;;;9.10;99.90;;;;;;5091625;28;20477;-69
2021/12/16 10:20:22;;;;;;;2.30;2.20;;;9.10;99.90;;;;;;5092298;28;20444;-70
2021/12/16 10:23:12;;;;;;;0.50;0.50;;;9.10;99.90;;;;;;5092142;28;20504;-70
2021/12/16 10:26:01;;;;;;;1.67;1.17;;;9.10;99.90;;;;;;5091680;28;20453;-70
2021/12/16 10:28:52;;;;;;;0.60;0.60;;;9.10;99.90;;;;;;5091720;28;20454;-70
2021/12/16 10:31:39;;;;;;;1.70;1.53;;;9.10;99.90;;;;;;5092364;28;20430;-70
2021/12/16 10:34:28;;;;;;;1.27;1.03;;;9.10;99.90;;;;;;5091353;28;20973;-70
2021/12/16 10:37:15;;;;;;;0.60;0.60;;;9.10;99.90;;;;;;5092282;28;21000;-69
2021/12/16 10:40:33;;;;;;;1.20;1.10;;;9.20;99.90;;;;;;5077000;28;20434;-71
2021/12/16 10:43:28;;;;;;;1.37;1.27;;;9.20;99.90;;;;;;5070947;28;20427;-71
2021/12/16 10:46:18;;;;;;;0.50;0.50;;;9.20;99.90;;;;;;5070792;28;20440;-72
2021/12/16 10:49:09;;;;;;;2.60;0.70;;;9.20;99.90;;;;;;5070806;28;20461;-70
2021/12/16 10:51:59;;;;;;;0.40;0.40;;;9.30;99.90;;;;;;5070734;28;20788;-70
2021/12/16 10:54:48;;;;;;;1.20;1.20;;;9.30;99.90;;;;;;5070664;28;20423;-70
2021/12/16 10:57:36;;;;;;;0.40;0.40;;;9.20;99.90;;;;;;5097332;23;20539;-67
2021/12/16 11:00:23;;;;;;;0.67;0.63;;;9.30;99.90;;;;;;5094873;28;20418;-67
2021/12/16 11:03:09;;;;;;;0.40;0.40;;;9.30;99.90;;;;;;5074467;28;20422;-68
2021/12/16 11:05:56;;;;;;;0.33;0.33;;;9.40;99.90;;;;;;5075107;28;20423;-67
2021/12/16 11:08:44;;;;;;;0.70;0.70;;;9.30;99.90;;;;;;5077334;28;20450;-67
2021/12/16 11:11:32;;;;;;;1.27;0.57;;;9.40;99.90;;;;;;5086186;28;20419;-67
2021/12/16 11:14:23;;;;;;;0.37;0.37;;;9.50;99.90;;;;;;5085908;28;20427;-68
2021/12/16 11:17:13;;;;;;;0.90;0.50;;;9.50;99.90;;;;;;5087691;28;20443;-68
2021/12/16 11:20:08;;;;;;;0.63;0.63;;;9.60;99.90;;;;;;5086486;28;20442;-68
2021/12/16 11:22:59;;;;;;;2.90;1.70;;;9.60;99.90;;;;;;5077414;28;20513;-67
2021/12/16 11:25:51;;;;;;;1.03;1.03;;;9.60;99.90;;;;;;5075913;28;20419;-67
2021/12/16 11:28:40;;;;;;;0.63;0.63;;;9.60;99.90;;;;;;5078789;28;20488;-67
2021/12/16 11:31:31;;;;;;;0.40;0.40;;;9.70;99.90;;;;;;5091529;28;20434;-68
2021/12/16 11:34:19;;;;;;;0.60;0.60;;;9.70;99.90;;;;;;5092827;28;20419;-67
2021/12/16 11:37:06;;;;;;;0.60;0.60;;;9.70;99.90;;;;;;5093505;28;20447;-68
2021/12/16 11:39:53;;;;;;;0.40;0.40;;;9.70;99.90;;;;;;5093171;28;20423;-67
2021/12/16 11:42:41;;;;;;;0.40;0.40;;;9.80;99.90;;;;;;5078087;28;20464;-67
2021/12/16 11:45:37;;;;;;;0.40;0.40;;;9.80;99.90;;;;;;5074151;28;20423;-67
2021/12/16 11:48:30;;;;;;;0.40;0.40;;;9.90;99.90;;;;;;5074502;28;20501;-68
2021/12/16 11:51:21;;;;;;;2.50;2.30;;;9.90;99.90;;;;;;5074505;28;20446;-67
2021/12/16 11:54:16;;;;;;;0.50;0.50;;;10.00;99.90;;;;;;5074040;28;20473;-67
2021/12/16 11:57:10;;;;;;;0.40;0.30;;;10.00;99.90;;;;;;5073689;28;20455;-68
2021/12/16 12:00:01;;;;;;;0.57;0.57;;;9.90;99.90;;;;;;5072515;28;20425;-68
2021/12/16 12:02:50;;;;;;;0.40;0.40;;;10.00;99.90;;;;;;5073995;28;20431;-67
2021/12/16 12:05:42;;;;;;;0.93;0.63;;;10.20;99.90;;;;;;5073112;28;20422;-67
2021/12/16 12:08:32;;;;;;;0.80;0.50;;;10.10;99.90;;;;;;5072854;28;20661;-67
2021/12/16 12:11:21;;;;;;;1.17;0.57;;;10.10;99.90;;;;;;5072241;28;20422;-68
2021/12/16 12:14:10;;;;;;;1.80;1.17;;;10.10;99.90;;;;;;5092801;28;20514;-67
2021/12/16 12:17:07;;;;;;;0.50;0.50;;;10.20;99.90;;;;;;5093794;28;20438;-67
2021/12/16 12:19:54;;;;;;;0.40;0.40;;;10.20;99.90;;;;;;5093932;28;20794;-68
2021/12/16 12:22:41;;;;;;;0.80;0.80;;;10.10;99.90;;;;;;5093650;28;20431;-67
2021/12/16 12:25:29;;;;;;;2.17;1.27;;;10.10;99.90;;;;;;5094064;28;20431;-68
2021/12/16 12:28:16;;;;;;;1.07;0.60;;;10.10;99.90;;;;;;5093882;28;20469;-68
2021/12/16 12:31:04;;;;;;;1.90;1.47;;;10.10;99.90;;;;;;5093765;28;20535;-67
2021/12/16 12:33:53;;;;;;;0.40;0.40;;;10.20;99.90;;;;;;5093473;28;20418;-67
2021/12/16 12:36:43;;;;;;;0.70;0.70;;;10.10;99.90;;;;;;5093530;28;20487;-68
2021/12/16 12:39:40;;;;;;;0.40;0.40;;;10.00;99.90;;;;;;5083245;28;20517;-68
2021/12/16 12:42:29;;;;;;;1.13;0.73;;;9.90;99.90;;;;;;5072067;28;20434;-68
2021/12/16 12:45:20;;;;;;;0.40;0.30;;;10.00;99.90;;;;;;5073709;28;20419;-68
2021/12/16 12:48:12;;;;;;;0.40;0.40;;;9.80;99.90;;;;;;5071903;28;20544;-68
2021/12/16 12:51:01;;;;;;;0.40;0.40;;;9.70;99.90;;;;;;5072429;28;20453;-68
2021/12/16 12:53:51;;;;;;;1.40;0.80;;;9.60;99.90;;;;;;5072642;28;20513;-69
2021/12/16 12:56:38;;;;;;;0.40;0.40;;;9.60;99.90;;;;;;5072652;28;20505;-68
2021/12/16 12:59:34;;;;;;;2.20;0.70;;;9.60;99.90;;;;;;5072257;28;20427;-68
2021/12/16 13:02:25;;;;;;;1.17;1.03;;;9.50;99.90;;;;;;5072099;28;20794;-69
2021/12/16 13:05:19;;;;;;;0.40;0.40;;;9.50;99.90;;;;;;5071741;28;20855;-68
2021/12/16 13:08:11;;;;;;;0.43;0.43;;;9.50;99.90;;;;;;5071692;28;20553;-68
2021/12/16 13:11:01;;;;;;;0.50;0.50;;;9.30;99.90;;;;;;5072159;28;20757;-68
2021/12/16 13:14:01;;;;;;;0.40;0.40;;;9.30;99.90;;;;;;5073112;28;20776;-68
2021/12/16 13:17:20;;;;;;;0.40;0.40;;;9.20;99.90;;;;;;5072864;28;20504;-68
2021/12/16 13:23:29;;;;;;;0.50;0.50;;;9.20;99.90;;;;;;5072594;28;20423;-68
2021/12/16 13:26:35;;;;;;;0.40;0.40;;;9.30;99.90;;;;;;5072767;28;20466;-68
2021/12/16 13:29:33;;;;;;;0.80;0.60;;;9.30;99.90;;;;;;5071648;28;20450;-68
2021/12/16 13:32:27;;;;;;;0.40;0.40;;;9.30;99.90;;;;;;5071527;28;20423;-68
2021/12/16 13:35:32;;;;;;;1.33;1.07;;;9.40;99.90;;;;;;5071820;28;20495;-68
2021/12/16 13:38:22;;;;;;;0.40;0.40;;;9.50;99.90;;;;;;5072746;28;20485;-68
2021/12/16 13:41:13;;;;;;;1.60;0.60;;;9.70;99.90;;;;;;5092425;28;20828;-68
2021/12/16 13:44:08;;;;;;;1.80;0.77;;;9.90;99.90;;;;;;5091978;28;20479;-69
2021/12/16 13:47:01;;;;;;;0.90;0.60;;;10.00;99.90;;;;;;5091272;28;20526;-69
2021/12/16 14:00:58;;;;;;;1.10;0.90;;;9.40;99.90;;;;;;5091694;28;20407;-69
2021/12/16 14:03:45;;;;;;;0.73;0.73;;;9.20;99.90;;;;;;5084307;28;20434;-69
2021/12/16 14:06:40;;;;;;;0.60;0.60;;;8.90;99.90;;;;;;5072391;28;20486;-69
2021/12/16 14:09:33;;;;;;;0.30;0.30;;;8.80;99.90;;;;;;5072008;28;20549;-68
2021/12/16 14:15:55;;;;;;;0.40;0.40;;;8.60;99.90;;;;;;5010533;28;20900;-69
2021/12/16 14:25:17;;;;;;;0.40;0.40;;;8.40;99.90;;;;;;5071650;28;20415;-69
2021/12/16 14:31:38;;;;;;;0.33;0.33;;;8.30;99.90;;;;;;5091472;28;20922;-68
2021/12/16 14:37:37;;;;;;;0.40;0.40;;;8.20;99.90;;;;;;5075838;28;20515;-68
2021/12/16 14:40:52;;;;;;;0.40;0.40;;;8.10;99.90;;;;;;5075066;28;20445;-68
2021/12/16 14:43:51;;;;;;;0.87;0.53;;;8.00;99.90;;;;;;5075864;28;20831;-69
2021/12/16 14:46:46;;;;;;;0.40;0.30;;;8.10;99.90;;;;;;5073655;28;20447;-69
2021/12/16 14:49:37;;;;;;;0.40;0.40;;;7.90;99.90;;;;;;5074141;28;20830;-69
2021/12/16 14:52:27;;;;;;;0.40;0.40;;;7.80;99.90;;;;;;5074206;28;20427;-68
2021/12/16 14:55:17;;;;;;;0.40;0.40;;;7.80;99.90;;;;;;5074192;28;20947;-69
2021/12/16 14:58:05;;;;;;;0.40;0.40;;;7.70;99.90;;;;;;5092862;28;20462;-69
2021/12/16 15:00:55;;;;;;;0.50;0.40;;;7.70;99.90;;;;;;5094428;28;20474;-68
2021/12/16 15:03:44;;;;;;;0.40;0.40;;;7.70;99.90;;;;;;5093872;28;20422;-68
2021/12/16 15:06:40;;;;;;;0.40;0.40;;;7.70;99.90;;;;;;5093818;28;20958;-68
2021/12/16 15:09:30;;;;;;;0.40;0.40;;;7.60;99.90;;;;;;5079787;28;20465;-68
2021/12/16 15:12:27;;;;;;;0.40;0.40;;;7.60;99.90;;;;;;5094031;28;20441;-69
2021/12/16 15:15:23;;;;;;;1.53;0.90;;;7.50;99.90;;;;;;5095015;28;20433;-68
2021/12/16 15:36:51;;;;;;;0.40;0.40;;;7.20;99.90;;;;;;5074216;28;20449;-68
2021/12/16 15:39:49;;;;;;;0.40;0.40;;;7.20;99.90;;;;;;5074227;28;20487;-68
2021/12/16 15:42:50;;;;;;;0.37;0.37;;;7.10;99.90;;;;;;5072603;28;20427;-68
2021/12/16 15:45:41;;;;;;;0.40;0.40;;;7.00;99.90;;;;;;5072403;28;20943;-68
2021/12/16 15:48:31;;;;;;;1.13;0.73;;;6.90;99.90;;;;;;5073576;28;20419;-68
2021/12/16 15:51:22;;;;;;;0.50;0.50;;;6.90;99.90;;;;;;5074990;28;20434;-68
2021/12/16 15:54:11;;;;;;;0.40;0.40;;;6.80;99.90;;;;;;5075486;28;20427;-68
2021/12/16 15:56:58;;;;;;;0.40;0.40;;;6.80;99.90;;;;;;5083862;28;20465;-68
2021/12/16 16:02:48;;;;;;;1.07;0.97;;;6.80;99.90;;;;;;5095013;28;20482;-68
2021/12/16 16:05:38;;;;;;;0.40;0.40;;;6.70;99.90;;;;;;5093904;28;20421;-68
2021/12/16 16:08:28;;;;;;;0.40;0.40;;;6.70;99.90;;;;;;5094176;28;20419;-68
2021/12/16 16:11:18;;;;;;;0.40;0.40;;;6.70;99.90;;;;;;5088710;28;20423;-68
2021/12/16 16:14:07;;;;;;;0.40;0.40;;;6.60;99.90;;;;;;5073542;28;20790;-68
2021/12/16 16:16:58;;;;;;;0.40;0.40;;;6.60;99.90;;;;;;5073884;28;20452;-68
2021/12/16 16:19:49;;;;;;;0.40;0.40;;;6.50;99.90;;;;;;5073282;28;20936;-68
2021/12/16 16:22:36;;;;;;;0.40;0.40;;;6.50;99.90;;;;;;5092477;28;20804;-68
2021/12/16 16:25:24;;;;;;;0.43;0.43;;;6.40;99.90;;;;;;5093410;28;20415;-68
2021/12/16 16:28:14;;;;;;;0.40;0.40;;;6.30;99.90;;;;;;5093727;28;20480;-68
2021/12/16 16:31:04;;;;;;;2.57;1.40;;;6.30;99.90;;;;;;5093391;28;20410;-68
2021/12/16 16:33:52;;;;;;;0.40;0.40;;;6.30;99.90;;;;;;5093813;28;20432;-68
2021/12/16 16:36:43;;;;;;;0.40;0.40;;;6.30;99.90;;;;;;5092987;28;20434;-68
2021/12/16 16:39:33;;;;;;;0.40;0.40;;;6.30;99.90;;;;;;5093725;28;20468;-68
2021/12/16 16:42:22;;;;;;;0.40;0.40;;;6.30;99.90;;;;;;5093070;28;20957;-68
2021/12/16 16:45:18;;;;;;;0.40;0.40;;;6.20;99.90;;;;;;5092803;28;20418;-68
2021/12/16 16:48:16;;;;;;;0.67;0.67;;;6.20;99.90;;;;;;5092504;28;20820;-68
2021/12/16 16:51:05;;;;;;;0.40;0.40;;;6.20;99.90;;;;;;5092559;28;20418;-68
2021/12/16 16:53:59;;;;;;;0.40;0.40;;;6.40;99.90;;;;;;5092379;28;20411;-68
2021/12/16 16:56:54;;;;;;;0.50;0.50;;;6.20;99.90;;;;;;5114250;22;20543;-70
2021/12/16 16:59:46;;;;;;;0.40;0.40;;;6.10;99.90;;;;;;5092153;28;20423;-69
2021/12/16 17:02:36;;;;;;;0.40;0.40;;;6.10;99.90;;;;;;5092627;28;20422;-69
2021/12/16 17:05:27;;;;;;;0.40;0.40;;;6.10;99.90;;;;;;5092666;28;20430;-69
2021/12/16 17:08:16;;;;;;;0.77;0.77;;;6.00;99.90;;;;;;5092533;28;20453;-70
2021/12/16 17:11:08;;;;;;;0.40;0.40;;;6.00;99.90;;;;;;5092425;28;20838;-70
2021/12/16 17:14:07;;;;;;;0.40;0.40;;;6.00;99.90;;;;;;5092193;28;20418;-70
2021/12/16 17:17:20;;;;;;;0.50;0.50;;;6.00;99.90;;;;;;5092755;28;20442;-70